sensor_id;sensor_type;location;lat;lon;timestamp;temperature;humidity
31759;DHT22;36334;51.366;0.020;2022-08-04T00:03:12;20.90;99.90
31759;DHT22;36334;51.366;0.020;2022-08-04T00:06:03;20.90;99.90
31759;DHT22;36334;51.366;0.020;2022-08-04T00:08:55;20.80;99.90
31759;DHT22;36334;51.366;0.020;2022-08-04T00:11:44;20.80;99.90
31759;DHT22;36334;51.366;0.020;2022-08-04T00:14:34;20.80;99.90
31759;DHT22;36334;51.366;0.020;2022-08-04T00:17:27;20.80;99.90
31759;DHT22;36334;51.366;0.020;2022-08-04T00:20:17;20.70;99.90
31759;DHT22;36334;51.366;0.020;2022-08-04T00:23:05;20.70;99.90
31759;DHT22;36334;51.366;0.020;2022-08-04T00:25:54;20.70;99.90
31759;DHT22;36334;51.366;0.020;2022-08-04T00:28:41;20.70;99.90
31759;DHT22;36334;51.366;0.020;2022-08-04T00:31:28;20.70;99.90
31759;DHT22;36334;51.366;0.020;2022-08-04T00:34:35;20.70;99.90
31759;DHT22;36334;51.366;0.020;2022-08-04T00:37:23;20.70;99.90
31759;DHT22;36334;51.366;0.020;2022-08-04T00:40:22;20.70;99.90
31759;DHT22;36334;51.366;0.020;2022-08-04T00:43:18;20.70;99.90
31759;DHT22;36334;51.366;0.020;2022-08-04T00:49:38;20.60;99.90
31759;DHT22;36334;51.366;0.020;2022-08-04T00:58:41;20.60;99.90
31759;DHT22;36334;51.366;0.020;2022-08-04T01:04:54;20.60;99.90
31759;DHT22;36334;51.366;0.020;2022-08-04T01:17:35;20.70;99.90
31759;DHT22;36334;51.366;0.020;2022-08-04T01:20:24;20.70;99.90
31759;DHT22;36334;51.366;0.020;2022-08-04T01:26:56;20.70;99.50
31759;DHT22;36334;51.366;0.020;2022-08-04T01:29:55;20.70;99.40
31759;DHT22;36334;51.366;0.020;2022-08-04T01:32:51;20.80;99.10
31759;DHT22;36334;51.366;0.020;2022-08-04T01:35:50;20.70;98.80
31759;DHT22;36334;51.366;0.020;2022-08-04T01:38:39;20.80;98.60
31759;DHT22;36334;51.366;0.020;2022-08-04T01:41:25;20.70;98.40
31759;DHT22;36334;51.366;0.020;2022-08-04T01:44:18;20.70;98.10
31759;DHT22;36334;51.366;0.020;2022-08-04T01:47:07;20.70;98.00
31759;DHT22;36334;51.366;0.020;2022-08-04T01:49:53;20.70;97.90
31759;DHT22;36334;51.366;0.020;2022-08-04T01:52:42;20.70;97.90
31759;DHT22;36334;51.366;0.020;2022-08-04T01:55:36;20.70;97.80
31759;DHT22;36334;51.366;0.020;2022-08-04T01:58:40;20.70;97.80
31759;DHT22;36334;51.366;0.020;2022-08-04T02:01:26;20.70;97.50
31759;DHT22;36334;51.366;0.020;2022-08-04T02:04:18;20.70;97.20
31759;DHT22;36334;51.366;0.020;2022-08-04T02:07:29;20.70;97.00
31759;DHT22;36334;51.366;0.020;2022-08-04T02:10:26;20.70;96.90
31759;DHT22;36334;51.366;0.020;2022-08-04T02:16:45;20.70;96.60
31759;DHT22;36334;51.366;0.020;2022-08-04T02:22:39;20.60;96.60
31759;DHT22;36334;51.366;0.020;2022-08-04T02:25:36;20.60;96.60
31759;DHT22;36334;51.366;0.020;2022-08-04T02:31:22;20.60;96.60
31759;DHT22;36334;51.366;0.020;2022-08-04T02:34:31;20.60;96.70
31759;DHT22;36334;51.366;0.020;2022-08-04T02:37:21;20.60;96.70
31759;DHT22;36334;51.366;0.020;2022-08-04T02:40:11;20.50;96.80
31759;DHT22;36334;51.366;0.020;2022-08-04T02:42:57;20.50;96.90
31759;DHT22;36334;51.366;0.020;2022-08-04T02:45:45;20.50;97.00
31759;DHT22;36334;51.366;0.020;2022-08-04T02:48:33;20.50;97.00
31759;DHT22;36334;51.366;0.020;2022-08-04T02:51:25;20.50;97.10
31759;DHT22;36334;51.366;0.020;2022-08-04T02:54:14;20.50;97.10
31759;DHT22;36334;51.366;0.020;2022-08-04T02:57:17;20.40;97.20
31759;DHT22;36334;51.366;0.020;2022-08-04T03:00:09;20.50;97.20
31759;DHT22;36334;51.366;0.020;2022-08-04T03:03:26;20.40;97.20
31759;DHT22;36334;51.366;0.020;2022-08-04T03:12:45;20.30;97.00
31759;DHT22;36334;51.366;0.020;2022-08-04T03:15:58;20.30;96.50
31759;DHT22;36334;51.366;0.020;2022-08-04T03:19:10;20.20;96.40
31759;DHT22;36334;51.366;0.020;2022-08-04T03:44:23;19.90;95.20
31759;DHT22;36334;51.366;0.020;2022-08-04T03:50:48;19.80;95.10
31759;DHT22;36334;51.366;0.020;2022-08-04T04:19:36;19.60;95.20
31759;DHT22;36334;51.366;0.020;2022-08-04T04:31:58;19.40;95.20
31759;DHT22;36334;51.366;0.020;2022-08-04T04:41:29;19.30;95.40
31759;DHT22;36334;51.366;0.020;2022-08-04T04:44:40;19.20;95.50
31759;DHT22;36334;51.366;0.020;2022-08-04T04:54:03;19.00;96.00
31759;DHT22;36334;51.366;0.020;2022-08-04T04:57:13;18.90;96.10
31759;DHT22;36334;51.366;0.020;2022-08-04T05:00:11;18.80;96.30
31759;DHT22;36334;51.366;0.020;2022-08-04T05:03:36;18.80;96.50
31759;DHT22;36334;51.366;0.020;2022-08-04T05:12:39;18.70;97.00
31759;DHT22;36334;51.366;0.020;2022-08-04T05:15:52;18.70;97.20
31759;DHT22;36334;51.366;0.020;2022-08-04T05:18:41;18.70;97.20
31759;DHT22;36334;51.366;0.020;2022-08-04T05:21:50;18.70;97.30
31759;DHT22;36334;51.366;0.020;2022-08-04T05:24:41;18.70;97.40
31759;DHT22;36334;51.366;0.020;2022-08-04T05:27:33;18.80;97.50
31759;DHT22;36334;51.366;0.020;2022-08-04T05:30:26;18.80;97.60
31759;DHT22;36334;51.366;0.020;2022-08-04T05:33:25;18.90;97.60
31759;DHT22;36334;51.366;0.020;2022-08-04T05:36:19;18.90;97.60
31759;DHT22;36334;51.366;0.020;2022-08-04T05:39:30;19.10;97.60
31759;DHT22;36334;51.366;0.020;2022-08-04T05:42:19;19.20;97.50
31759;DHT22;36334;51.366;0.020;2022-08-04T05:45:08;19.20;97.40
31759;DHT22;36334;51.366;0.020;2022-08-04T05:47:56;19.30;97.20
31759;DHT22;36334;51.366;0.020;2022-08-04T05:50:43;19.30;96.90
31759;DHT22;36334;51.366;0.020;2022-08-04T05:53:30;19.30;96.70
31759;DHT22;36334;51.366;0.020;2022-08-04T05:56:17;19.20;96.60
31759;DHT22;36334;51.366;0.020;2022-08-04T05:59:04;19.30;96.60
31759;DHT22;36334;51.366;0.020;2022-08-04T06:01:55;19.30;96.60
31759;DHT22;36334;51.366;0.020;2022-08-04T06:04:45;19.40;96.60
31759;DHT22;36334;51.366;0.020;2022-08-04T06:07:32;19.40;96.80
31759;DHT22;36334;51.366;0.020;2022-08-04T06:10:39;19.40;96.50
31759;DHT22;36334;51.366;0.020;2022-08-04T06:13:39;19.40;96.50
31759;DHT22;36334;51.366;0.020;2022-08-04T06:16:38;19.30;96.50
31759;DHT22;36334;51.366;0.020;2022-08-04T06:19:29;19.20;96.60
31759;DHT22;36334;51.366;0.020;2022-08-04T06:22:42;19.10;96.70
31759;DHT22;36334;51.366;0.020;2022-08-04T06:25:31;19.00;96.80
31759;DHT22;36334;51.366;0.020;2022-08-04T06:28:18;19.00;97.00
31759;DHT22;36334;51.366;0.020;2022-08-04T06:31:05;19.00;97.10
31759;DHT22;36334;51.366;0.020;2022-08-04T06:34:14;19.10;97.30
31759;DHT22;36334;51.366;0.020;2022-08-04T06:37:02;19.10;97.40
31759;DHT22;36334;51.366;0.020;2022-08-04T06:39:49;19.10;97.30
31759;DHT22;36334;51.366;0.020;2022-08-04T06:42:38;19.10;97.30
31759;DHT22;36334;51.366;0.020;2022-08-04T06:45:25;19.10;97.30
31759;DHT22;36334;51.366;0.020;2022-08-04T06:48:14;19.10;97.30
31759;DHT22;36334;51.366;0.020;2022-08-04T06:51:02;19.10;97.30
31759;DHT22;36334;51.366;0.020;2022-08-04T06:54:08;19.10;97.30
31759;DHT22;36334;51.366;0.020;2022-08-04T06:56:57;19.10;97.20
31759;DHT22;36334;51.366;0.020;2022-08-04T07:00:03;19.10;97.10
31759;DHT22;36334;51.366;0.020;2022-08-04T07:02:51;19.20;97.10
31759;DHT22;36334;51.366;0.020;2022-08-04T07:05:39;19.20;97.00
31759;DHT22;36334;51.366;0.020;2022-08-04T07:08:25;19.20;97.00
31759;DHT22;36334;51.366;0.020;2022-08-04T07:11:13;19.20;97.00
31759;DHT22;36334;51.366;0.020;2022-08-04T07:13:59;19.20;96.90
31759;DHT22;36334;51.366;0.020;2022-08-04T07:16:47;19.20;96.80
31759;DHT22;36334;51.366;0.020;2022-08-04T07:19:35;19.30;96.80
31759;DHT22;36334;51.366;0.020;2022-08-04T07:22:24;19.30;96.90
31759;DHT22;36334;51.366;0.020;2022-08-04T07:25:11;19.30;96.90
31759;DHT22;36334;51.366;0.020;2022-08-04T07:27:58;19.30;97.00
31759;DHT22;36334;51.366;0.020;2022-08-04T07:30:44;19.40;97.00
31759;DHT22;36334;51.366;0.020;2022-08-04T07:33:32;19.40;96.90
31759;DHT22;36334;51.366;0.020;2022-08-04T07:36:18;19.40;96.80
31759;DHT22;36334;51.366;0.020;2022-08-04T07:39:05;19.40;96.70
31759;DHT22;36334;51.366;0.020;2022-08-04T07:41:53;19.40;96.70
31759;DHT22;36334;51.366;0.020;2022-08-04T07:44:40;19.40;96.70
31759;DHT22;36334;51.366;0.020;2022-08-04T07:47:31;19.50;96.70
31759;DHT22;36334;51.366;0.020;2022-08-04T07:50:19;19.50;96.60
31759;DHT22;36334;51.366;0.020;2022-08-04T07:53:05;19.60;96.60
31759;DHT22;36334;51.366;0.020;2022-08-04T07:56:12;19.60;96.50
31759;DHT22;36334;51.366;0.020;2022-08-04T07:59:00;19.70;96.50
31759;DHT22;36334;51.366;0.020;2022-08-04T08:01:47;19.70;96.40
31759;DHT22;36334;51.366;0.020;2022-08-04T08:04:33;19.70;96.30
31759;DHT22;36334;51.366;0.020;2022-08-04T08:07:20;19.80;96.10
31759;DHT22;36334;51.366;0.020;2022-08-04T08:10:14;19.80;96.10
31759;DHT22;36334;51.366;0.020;2022-08-04T08:13:00;19.80;96.10
31759;DHT22;36334;51.366;0.020;2022-08-04T08:15:47;19.90;96.10
31759;DHT22;36334;51.366;0.020;2022-08-04T08:18:34;19.90;96.00
31759;DHT22;36334;51.366;0.020;2022-08-04T08:21:21;20.00;95.80
31759;DHT22;36334;51.366;0.020;2022-08-04T08:24:07;20.10;95.70
31759;DHT22;36334;51.366;0.020;2022-08-04T08:26:58;20.20;95.70
31759;DHT22;36334;51.366;0.020;2022-08-04T08:29:46;20.20;95.50
31759;DHT22;36334;51.366;0.020;2022-08-04T08:32:32;20.30;95.30
31759;DHT22;36334;51.366;0.020;2022-08-04T08:35:19;20.30;95.10
31759;DHT22;36334;51.366;0.020;2022-08-04T08:38:08;20.30;94.80
31759;DHT22;36334;51.366;0.020;2022-08-04T08:57:32;20.50;94.40
31759;DHT22;36334;51.366;0.020;2022-08-04T09:12:49;20.70;93.90
31759;DHT22;36334;51.366;0.020;2022-08-04T09:15:48;20.80;93.80
31759;DHT22;36334;51.366;0.020;2022-08-04T09:18:59;20.80;93.70
31759;DHT22;36334;51.366;0.020;2022-08-04T09:22:05;20.90;93.40
31759;DHT22;36334;51.366;0.020;2022-08-04T09:25:16;21.00;93.40
31759;DHT22;36334;51.366;0.020;2022-08-04T09:28:13;21.20;93.10
31759;DHT22;36334;51.366;0.020;2022-08-04T09:31:29;21.30;92.90
31759;DHT22;36334;51.366;0.020;2022-08-04T09:38:26;21.60;92.30
31759;DHT22;36334;51.366;0.020;2022-08-04T09:44:43;21.80;92.00
31759;DHT22;36334;51.366;0.020;2022-08-04T09:48:06;21.80;91.90
31759;DHT22;36334;51.366;0.020;2022-08-04T09:50:58;21.90;91.70
31759;DHT22;36334;51.366;0.020;2022-08-04T09:54:14;22.00;91.70
31759;DHT22;36334;51.366;0.020;2022-08-04T10:01:05;22.40;91.10
31759;DHT22;36334;51.366;0.020;2022-08-04T10:03:58;22.50;90.90
31759;DHT22;36334;51.366;0.020;2022-08-04T10:07:08;22.50;90.60
31759;DHT22;36334;51.366;0.020;2022-08-04T10:13:30;22.60;90.20
31759;DHT22;36334;51.366;0.020;2022-08-04T10:19:40;22.80;89.50
31759;DHT22;36334;51.366;0.020;2022-08-04T10:23:19;22.80;89.50
31759;DHT22;36334;51.366;0.020;2022-08-04T10:32:08;23.00;88.80
31759;DHT22;36334;51.366;0.020;2022-08-04T10:35:13;23.10;88.00
31759;DHT22;36334;51.366;0.020;2022-08-04T10:44:33;23.30;87.10
31759;DHT22;36334;51.366;0.020;2022-08-04T10:47:34;23.10;86.70
31759;DHT22;36334;51.366;0.020;2022-08-04T10:50:23;23.00;86.70
31759;DHT22;36334;51.366;0.020;2022-08-04T10:53:13;22.90;86.80
31759;DHT22;36334;51.366;0.020;2022-08-04T10:56:12;22.80;87.10
31759;DHT22;36334;51.366;0.020;2022-08-04T10:59:15;22.80;87.40
31759;DHT22;36334;51.366;0.020;2022-08-04T11:08:36;22.80;87.00
31759;DHT22;36334;51.366;0.020;2022-08-04T11:11:30;22.90;87.00
31759;DHT22;36334;51.366;0.020;2022-08-04T11:14:49;23.00;87.00
31759;DHT22;36334;51.366;0.020;2022-08-04T11:17:42;23.20;86.60
31759;DHT22;36334;51.366;0.020;2022-08-04T11:20:42;23.30;86.20
31759;DHT22;36334;51.366;0.020;2022-08-04T11:23:36;23.40;85.60
31759;DHT22;36334;51.366;0.020;2022-08-04T11:26:48;23.50;84.90
31759;DHT22;36334;51.366;0.020;2022-08-04T11:35:54;23.50;83.90
31759;DHT22;36334;51.366;0.020;2022-08-04T11:38:52;23.60;84.00
31759;DHT22;36334;51.366;0.020;2022-08-04T11:42:27;23.70;84.00
31759;DHT22;36334;51.366;0.020;2022-08-04T11:45:20;23.90;83.40
31759;DHT22;36334;51.366;0.020;2022-08-04T11:48:23;24.10;83.40
31759;DHT22;36334;51.366;0.020;2022-08-04T11:51:14;24.30;83.00
31759;DHT22;36334;51.366;0.020;2022-08-04T11:54:02;24.50;83.00
31759;DHT22;36334;51.366;0.020;2022-08-04T11:56:48;24.70;82.70
31759;DHT22;36334;51.366;0.020;2022-08-04T11:59:35;24.80;82.10
31759;DHT22;36334;51.366;0.020;2022-08-04T12:05:43;24.80;80.90
31759;DHT22;36334;51.366;0.020;2022-08-04T12:08:53;24.80;81.00
31759;DHT22;36334;51.366;0.020;2022-08-04T12:15:11;24.90;80.20
31759;DHT22;36334;51.366;0.020;2022-08-04T12:20:57;24.90;79.50
31759;DHT22;36334;51.366;0.020;2022-08-04T12:23:45;24.90;79.30
31759;DHT22;36334;51.366;0.020;2022-08-04T12:26:37;24.80;79.10
31759;DHT22;36334;51.366;0.020;2022-08-04T12:29:26;24.90;78.80
31759;DHT22;36334;51.366;0.020;2022-08-04T12:32:28;24.90;78.10
31759;DHT22;36334;51.366;0.020;2022-08-04T12:35:28;24.90;77.30
31759;DHT22;36334;51.366;0.020;2022-08-04T12:38:15;25.10;77.10
31759;DHT22;36334;51.366;0.020;2022-08-04T12:41:03;25.20;77.10
31759;DHT22;36334;51.366;0.020;2022-08-04T12:43:50;25.30;76.90
31759;DHT22;36334;51.366;0.020;2022-08-04T12:46:38;25.60;77.10
31759;DHT22;36334;51.366;0.020;2022-08-04T12:49:25;25.80;76.80
31759;DHT22;36334;51.366;0.020;2022-08-04T12:52:13;26.00;76.70
31759;DHT22;36334;51.366;0.020;2022-08-04T12:55:04;26.30;76.50
31759;DHT22;36334;51.366;0.020;2022-08-04T12:57:51;26.40;75.40
31759;DHT22;36334;51.366;0.020;2022-08-04T13:00:38;26.40;74.90
31759;DHT22;36334;51.366;0.020;2022-08-04T13:03:35;26.40;75.00
31759;DHT22;36334;51.366;0.020;2022-08-04T13:06:26;26.40;75.40
31759;DHT22;36334;51.366;0.020;2022-08-04T13:09:19;26.60;75.20
31759;DHT22;36334;51.366;0.020;2022-08-04T13:12:18;26.80;74.50
31759;DHT22;36334;51.366;0.020;2022-08-04T13:15:11;26.80;73.40
31759;DHT22;36334;51.366;0.020;2022-08-04T13:18:06;26.80;73.70
31759;DHT22;36334;51.366;0.020;2022-08-04T13:21:12;26.70;73.70
31759;DHT22;36334;51.366;0.020;2022-08-04T13:24:12;26.70;72.90
31759;DHT22;36334;51.366;0.020;2022-08-04T13:27:10;26.70;72.90
31759;DHT22;36334;51.366;0.020;2022-08-04T13:30:01;26.80;72.30
31759;DHT22;36334;51.366;0.020;2022-08-04T13:32:56;27.00;72.10
31759;DHT22;36334;51.366;0.020;2022-08-04T13:35:47;27.20;71.30
31759;DHT22;36334;51.366;0.020;2022-08-04T13:38:48;27.40;71.30
31759;DHT22;36334;51.366;0.020;2022-08-04T13:41:38;27.60;70.60
31759;DHT22;36334;51.366;0.020;2022-08-04T13:44:31;27.90;70.10
31759;DHT22;36334;51.366;0.020;2022-08-04T13:47:22;27.90;69.30
31759;DHT22;36334;51.366;0.020;2022-08-04T13:50:25;27.90;70.00
31759;DHT22;36334;51.366;0.020;2022-08-04T13:53:21;27.80;69.70
31759;DHT22;36334;51.366;0.020;2022-08-04T13:56:13;27.80;69.40
31759;DHT22;36334;51.366;0.020;2022-08-04T13:59:03;27.70;69.50
31759;DHT22;36334;51.366;0.020;2022-08-04T14:02:05;27.60;69.60
31759;DHT22;36334;51.366;0.020;2022-08-04T14:04:56;27.50;70.10
31759;DHT22;36334;51.366;0.020;2022-08-04T14:07:50;27.30;71.00
31759;DHT22;36334;51.366;0.020;2022-08-04T14:10:39;27.20;70.50
31759;DHT22;36334;51.366;0.020;2022-08-04T14:13:32;27.20;70.50
31759;DHT22;36334;51.366;0.020;2022-08-04T14:16:27;27.40;70.70
31759;DHT22;36334;51.366;0.020;2022-08-04T14:19:12;27.50;70.60
31759;DHT22;36334;51.366;0.020;2022-08-04T14:21:59;27.60;70.40
31759;DHT22;36334;51.366;0.020;2022-08-04T14:24:58;27.50;70.30
31759;DHT22;36334;51.366;0.020;2022-08-04T14:27:50;27.50;70.40
31759;DHT22;36334;51.366;0.020;2022-08-04T14:30:37;27.50;70.60
31759;DHT22;36334;51.366;0.020;2022-08-04T14:33:22;27.60;70.70
31759;DHT22;36334;51.366;0.020;2022-08-04T14:36:43;27.80;70.50
31759;DHT22;36334;51.366;0.020;2022-08-04T14:39:51;28.00;70.70
31759;DHT22;36334;51.366;0.020;2022-08-04T14:43:00;27.90;69.60
31759;DHT22;36334;51.366;0.020;2022-08-04T14:45:49;27.70;69.70
31759;DHT22;36334;51.366;0.020;2022-08-04T14:49:08;27.50;69.90
31759;DHT22;36334;51.366;0.020;2022-08-04T14:51:59;27.50;70.10
31759;DHT22;36334;51.366;0.020;2022-08-04T14:54:47;27.40;70.20
31759;DHT22;36334;51.366;0.020;2022-08-04T14:57:35;27.20;70.50
31759;DHT22;36334;51.366;0.020;2022-08-04T15:00:42;27.10;70.60
31759;DHT22;36334;51.366;0.020;2022-08-04T15:03:29;26.90;70.70
31759;DHT22;36334;51.366;0.020;2022-08-04T15:06:15;26.90;70.70
31759;DHT22;36334;51.366;0.020;2022-08-04T15:09:08;26.80;71.00
31759;DHT22;36334;51.366;0.020;2022-08-04T15:11:55;27.00;70.70
31759;DHT22;36334;51.366;0.020;2022-08-04T15:14:44;27.50;70.70
31759;DHT22;36334;51.366;0.020;2022-08-04T15:17:30;28.00;70.30
31759;DHT22;36334;51.366;0.020;2022-08-04T15:20:17;28.90;69.10
31759;DHT22;36334;51.366;0.020;2022-08-04T15:23:05;29.40;68.20
31759;DHT22;36334;51.366;0.020;2022-08-04T15:26:00;29.40;67.20
31759;DHT22;36334;51.366;0.020;2022-08-04T15:28:59;29.10;66.70
31759;DHT22;36334;51.366;0.020;2022-08-04T15:31:47;28.60;66.50
31759;DHT22;36334;51.366;0.020;2022-08-04T15:35:01;28.00;66.90
31759;DHT22;36334;51.366;0.020;2022-08-04T15:40:51;27.60;67.90
31759;DHT22;36334;51.366;0.020;2022-08-04T15:47:14;28.00;67.50
31759;DHT22;36334;51.366;0.020;2022-08-04T15:50:09;27.90;67.40
31759;DHT22;36334;51.366;0.020;2022-08-04T15:53:04;27.60;66.80
31759;DHT22;36334;51.366;0.020;2022-08-04T15:55:58;27.40;67.20
31759;DHT22;36334;51.366;0.020;2022-08-04T15:58:52;27.30;67.60
31759;DHT22;36334;51.366;0.020;2022-08-04T16:01:39;27.30;67.40
31759;DHT22;36334;51.366;0.020;2022-08-04T16:04:45;27.30;67.30
31759;DHT22;36334;51.366;0.020;2022-08-04T16:08:10;27.30;67.20
31759;DHT22;36334;51.366;0.020;2022-08-04T16:10:58;27.30;67.20
31759;DHT22;36334;51.366;0.020;2022-08-04T16:16:52;27.10;67.30
31759;DHT22;36334;51.366;0.020;2022-08-04T16:19:56;26.90;67.50
31759;DHT22;36334;51.366;0.020;2022-08-04T16:22:47;26.80;68.00
31759;DHT22;36334;51.366;0.020;2022-08-04T16:25:43;27.10;68.20
31759;DHT22;36334;51.366;0.020;2022-08-04T16:31:22;28.10;67.30
31759;DHT22;36334;51.366;0.020;2022-08-04T16:34:08;28.50;66.70
31759;DHT22;36334;51.366;0.020;2022-08-04T16:37:15;28.60;65.90
31759;DHT22;36334;51.366;0.020;2022-08-04T16:40:23;28.50;65.60
31759;DHT22;36334;51.366;0.020;2022-08-04T16:43:18;28.20;65.70
31759;DHT22;36334;51.366;0.020;2022-08-04T16:46:07;27.90;66.00
31759;DHT22;36334;51.366;0.020;2022-08-04T16:49:05;27.40;66.30
31759;DHT22;36334;51.366;0.020;2022-08-04T16:51:52;26.90;67.00
31759;DHT22;36334;51.366;0.020;2022-08-04T16:54:38;26.60;67.70
31759;DHT22;36334;51.366;0.020;2022-08-04T16:57:26;26.30;68.10
31759;DHT22;36334;51.366;0.020;2022-08-04T17:00:12;26.20;68.50
31759;DHT22;36334;51.366;0.020;2022-08-04T17:03:03;26.20;68.60
31759;DHT22;36334;51.366;0.020;2022-08-04T17:06:04;26.10;68.60
31759;DHT22;36334;51.366;0.020;2022-08-04T17:08:51;26.00;68.80
31759;DHT22;36334;51.366;0.020;2022-08-04T17:11:38;26.10;68.80
31759;DHT22;36334;51.366;0.020;2022-08-04T17:14:29;26.10;68.70
31759;DHT22;36334;51.366;0.020;2022-08-04T17:17:21;25.90;68.60
31759;DHT22;36334;51.366;0.020;2022-08-04T17:20:08;25.70;68.90
31759;DHT22;36334;51.366;0.020;2022-08-04T17:22:56;25.60;69.30
31759;DHT22;36334;51.366;0.020;2022-08-04T17:26:24;25.50;69.40
31759;DHT22;36334;51.366;0.020;2022-08-04T17:29:29;25.30;69.40
31759;DHT22;36334;51.366;0.020;2022-08-04T17:32:29;25.20;69.50
31759;DHT22;36334;51.366;0.020;2022-08-04T17:35:16;25.00;69.60
31759;DHT22;36334;51.366;0.020;2022-08-04T17:38:05;24.90;69.80
31759;DHT22;36334;51.366;0.020;2022-08-04T17:40:57;24.70;70.50
31759;DHT22;36334;51.366;0.020;2022-08-04T17:44:00;24.70;70.20
31759;DHT22;36334;51.366;0.020;2022-08-04T17:46:51;24.60;70.30
31759;DHT22;36334;51.366;0.020;2022-08-04T17:49:40;24.50;70.30
31759;DHT22;36334;51.366;0.020;2022-08-04T17:52:38;24.50;70.30
31759;DHT22;36334;51.366;0.020;2022-08-04T17:55:46;24.50;70.30
31759;DHT22;36334;51.366;0.020;2022-08-04T17:58:34;24.50;70.30
31759;DHT22;36334;51.366;0.020;2022-08-04T18:01:22;24.40;70.10
31759;DHT22;36334;51.366;0.020;2022-08-04T18:04:26;24.40;70.30
31759;DHT22;36334;51.366;0.020;2022-08-04T18:07:17;24.30;70.40
31759;DHT22;36334;51.366;0.020;2022-08-04T18:10:53;24.20;70.40
31759;DHT22;36334;51.366;0.020;2022-08-04T18:13:42;24.20;70.40
31759;DHT22;36334;51.366;0.020;2022-08-04T18:16:44;24.10;70.50
31759;DHT22;36334;51.366;0.020;2022-08-04T18:19:30;23.90;70.40
31759;DHT22;36334;51.366;0.020;2022-08-04T18:22:17;23.90;70.50
31759;DHT22;36334;51.366;0.020;2022-08-04T18:25:18;23.80;70.50
31759;DHT22;36334;51.366;0.020;2022-08-04T18:28:06;23.70;70.60
31759;DHT22;36334;51.366;0.020;2022-08-04T18:31:00;23.60;70.60
31759;DHT22;36334;51.366;0.020;2022-08-04T18:33:46;23.50;70.70
31759;DHT22;36334;51.366;0.020;2022-08-04T18:36:54;23.40;70.80
31759;DHT22;36334;51.366;0.020;2022-08-04T18:39:44;23.30;70.70
31759;DHT22;36334;51.366;0.020;2022-08-04T18:42:50;23.30;70.90
31759;DHT22;36334;51.366;0.020;2022-08-04T18:45:36;23.20;71.00
31759;DHT22;36334;51.366;0.020;2022-08-04T18:48:23;23.10;71.00
31759;DHT22;36334;51.366;0.020;2022-08-04T18:51:22;23.00;71.10
31759;DHT22;36334;51.366;0.020;2022-08-04T18:54:16;22.90;71.00
31759;DHT22;36334;51.366;0.020;2022-08-04T18:57:02;22.90;70.90
31759;DHT22;36334;51.366;0.020;2022-08-04T19:00:08;22.80;70.80
31759;DHT22;36334;51.366;0.020;2022-08-04T19:02:55;22.80;70.80
31759;DHT22;36334;51.366;0.020;2022-08-04T19:05:42;22.70;70.80
31759;DHT22;36334;51.366;0.020;2022-08-04T19:08:33;22.60;70.90
31759;DHT22;36334;51.366;0.020;2022-08-04T19:11:27;22.60;70.90
31759;DHT22;36334;51.366;0.020;2022-08-04T19:17:59;22.50;71.00
31759;DHT22;36334;51.366;0.020;2022-08-04T19:20:46;22.50;70.90
31759;DHT22;36334;51.366;0.020;2022-08-04T19:23:34;22.40;70.80
31759;DHT22;36334;51.366;0.020;2022-08-04T19:26:40;22.40;70.90
31759;DHT22;36334;51.366;0.020;2022-08-04T19:29:36;22.30;70.80
31759;DHT22;36334;51.366;0.020;2022-08-04T19:32:28;22.30;70.60
31759;DHT22;36334;51.366;0.020;2022-08-04T19:35:15;22.20;70.40
31759;DHT22;36334;51.366;0.020;2022-08-04T19:38:01;22.10;70.30
31759;DHT22;36334;51.366;0.020;2022-08-04T19:40:49;22.10;70.00
31759;DHT22;36334;51.366;0.020;2022-08-04T19:43:38;22.00;70.10
31759;DHT22;36334;51.366;0.020;2022-08-04T19:46:29;21.90;70.20
31759;DHT22;36334;51.366;0.020;2022-08-04T19:49:15;21.90;69.90
31759;DHT22;36334;51.366;0.020;2022-08-04T19:52:22;21.80;69.80
31759;DHT22;36334;51.366;0.020;2022-08-04T19:55:28;21.70;69.70
31759;DHT22;36334;51.366;0.020;2022-08-04T19:58:24;21.70;69.70
31759;DHT22;36334;51.366;0.020;2022-08-04T20:01:12;21.60;69.70
31759;DHT22;36334;51.366;0.020;2022-08-04T20:04:18;21.60;69.70
31759;DHT22;36334;51.366;0.020;2022-08-04T20:07:04;21.50;69.80
31759;DHT22;36334;51.366;0.020;2022-08-04T20:09:59;21.50;70.00
31759;DHT22;36334;51.366;0.020;2022-08-04T20:12:50;21.50;70.20
31759;DHT22;36334;51.366;0.020;2022-08-04T20:15:40;21.40;70.10
31759;DHT22;36334;51.366;0.020;2022-08-04T20:18:43;21.40;70.20
31759;DHT22;36334;51.366;0.020;2022-08-04T20:21:49;21.40;70.30
31759;DHT22;36334;51.366;0.020;2022-08-04T20:24:41;21.30;70.30
31759;DHT22;36334;51.366;0.020;2022-08-04T20:27:44;21.30;70.20
31759;DHT22;36334;51.366;0.020;2022-08-04T20:30:45;21.30;70.80
31759;DHT22;36334;51.366;0.020;2022-08-04T20:33:33;21.30;70.20
31759;DHT22;36334;51.366;0.020;2022-08-04T20:36:22;21.30;70.20
31759;DHT22;36334;51.366;0.020;2022-08-04T20:39:08;21.30;70.80
31759;DHT22;36334;51.366;0.020;2022-08-04T20:42:00;21.20;70.20
31759;DHT22;36334;51.366;0.020;2022-08-04T20:44:47;21.20;70.20
31759;DHT22;36334;51.366;0.020;2022-08-04T20:47:33;21.20;70.10
31759;DHT22;36334;51.366;0.020;2022-08-04T20:50:24;21.20;69.90
31759;DHT22;36334;51.366;0.020;2022-08-04T20:53:31;21.20;69.80
31759;DHT22;36334;51.366;0.020;2022-08-04T20:56:37;21.20;69.80
31759;DHT22;36334;51.366;0.020;2022-08-04T20:59:36;21.20;69.70
31759;DHT22;36334;51.366;0.020;2022-08-04T21:02:22;21.20;69.70
31759;DHT22;36334;51.366;0.020;2022-08-04T21:05:11;21.20;69.80
31759;DHT22;36334;51.366;0.020;2022-08-04T21:07:57;21.20;69.90
31759;DHT22;36334;51.366;0.020;2022-08-04T21:10:44;21.10;70.10
31759;DHT22;36334;51.366;0.020;2022-08-04T21:13:32;21.10;70.30
31759;DHT22;36334;51.366;0.020;2022-08-04T21:16:37;21.10;70.40
31759;DHT22;36334;51.366;0.020;2022-08-04T21:19:41;21.10;70.50
31759;DHT22;36334;51.366;0.020;2022-08-04T21:22:34;21.00;70.60
31759;DHT22;36334;51.366;0.020;2022-08-04T21:25:22;21.00;70.70
31759;DHT22;36334;51.366;0.020;2022-08-04T21:28:09;20.90;70.80
31759;DHT22;36334;51.366;0.020;2022-08-04T21:30:55;20.90;71.50
31759;DHT22;36334;51.366;0.020;2022-08-04T21:33:47;20.80;71.00
31759;DHT22;36334;51.366;0.020;2022-08-04T21:36:38;20.70;71.00
31759;DHT22;36334;51.366;0.020;2022-08-04T21:39:24;20.70;71.10
31759;DHT22;36334;51.366;0.020;2022-08-04T21:42:17;20.60;71.20
31759;DHT22;36334;51.366;0.020;2022-08-04T21:45:21;20.60;71.30
31759;DHT22;36334;51.366;0.020;2022-08-04T21:48:07;20.50;71.40
31759;DHT22;36334;51.366;0.020;2022-08-04T21:50:54;20.50;71.50
31759;DHT22;36334;51.366;0.020;2022-08-04T21:53:42;20.50;71.60
31759;DHT22;36334;51.366;0.020;2022-08-04T21:56:33;20.50;71.60
31759;DHT22;36334;51.366;0.020;2022-08-04T21:59:20;20.50;71.60
31759;DHT22;36334;51.366;0.020;2022-08-04T22:02:16;20.50;71.70